sensor_id;sensor_type;location;lat;lon;timestamp;P1;durP1;ratioP1;P2;durP2;ratioP2
68108;SDS011;54893;49.864;19.084;2023-11-21T00:03:59;14.77;;;5.20;;
68108;SDS011;54893;49.864;19.084;2023-11-21T00:09:01;11.88;;;5.15;;
68108;SDS011;54893;49.864;19.084;2023-11-21T00:14:02;10.50;;;4.57;;
68108;SDS011;54893;49.864;19.084;2023-11-21T00:19:03;9.97;;;4.47;;
68108;SDS011;54893;49.864;19.084;2023-11-21T00:24:03;9.27;;;4.20;;
68108;SDS011;54893;49.864;19.084;2023-11-21T00:29:04;16.60;;;6.67;;
68108;SDS011;54893;49.864;19.084;2023-11-21T00:34:04;18.25;;;7.90;;
68108;SDS011;54893;49.864;19.084;2023-11-21T00:39:05;14.68;;;6.68;;
68108;SDS011;54893;49.864;19.084;2023-11-21T00:44:06;14.75;;;5.90;;
68108;SDS011;54893;49.864;19.084;2023-11-21T00:49:06;13.30;;;5.40;;
68108;SDS011;54893;49.864;19.084;2023-11-21T00:54:07;14.85;;;4.88;;
68108;SDS011;54893;49.864;19.084;2023-11-21T00:59:08;12.10;;;4.53;;
68108;SDS011;54893;49.864;19.084;2023-11-21T01:04:08;13.60;;;4.70;;
68108;SDS011;54893;49.864;19.084;2023-11-21T01:09:08;10.03;;;4.43;;
68108;SDS011;54893;49.864;19.084;2023-11-21T01:14:09;10.67;;;4.73;;
68108;SDS011;54893;49.864;19.084;2023-11-21T01:19:10;11.05;;;3.53;;
68108;SDS011;54893;49.864;19.084;2023-11-21T01:24:10;13.27;;;5.57;;
68108;SDS011;54893;49.864;19.084;2023-11-21T01:29:11;12.53;;;5.00;;
68108;SDS011;54893;49.864;19.084;2023-11-21T01:34:11;10.70;;;4.60;;
68108;SDS011;54893;49.864;19.084;2023-11-21T01:39:11;11.27;;;5.33;;
68108;SDS011;54893;49.864;19.084;2023-11-21T01:44:15;11.70;;;4.47;;
68108;SDS011;54893;49.864;19.084;2023-11-21T01:49:17;12.30;;;4.50;;
68108;SDS011;54893;49.864;19.084;2023-11-21T01:54:18;11.65;;;4.43;;
68108;SDS011;54893;49.864;19.084;2023-11-21T01:59:21;12.07;;;4.13;;
68108;SDS011;54893;49.864;19.084;2023-11-21T02:04:22;13.35;;;4.90;;
68108;SDS011;54893;49.864;19.084;2023-11-21T02:09:24;14.20;;;5.80;;
68108;SDS011;54893;49.864;19.084;2023-11-21T02:14:26;11.32;;;4.68;;
68108;SDS011;54893;49.864;19.084;2023-11-21T02:19:27;15.57;;;5.60;;
68108;SDS011;54893;49.864;19.084;2023-11-21T02:24:29;16.00;;;5.70;;
68108;SDS011;54893;49.864;19.084;2023-11-21T02:29:30;12.40;;;5.03;;
68108;SDS011;54893;49.864;19.084;2023-11-21T02:34:30;13.67;;;5.60;;
68108;SDS011;54893;49.864;19.084;2023-11-21T02:39:31;16.27;;;5.27;;
68108;SDS011;54893;49.864;19.084;2023-11-21T02:44:31;17.57;;;6.30;;
68108;SDS011;54893;49.864;19.084;2023-11-21T02:49:32;12.27;;;5.00;;
68108;SDS011;54893;49.864;19.084;2023-11-21T02:54:34;11.57;;;5.00;;
68108;SDS011;54893;49.864;19.084;2023-11-21T02:59:36;13.97;;;5.37;;
68108;SDS011;54893;49.864;19.084;2023-11-21T03:04:36;10.93;;;4.43;;
68108;SDS011;54893;49.864;19.084;2023-11-21T03:09:37;12.87;;;4.10;;
68108;SDS011;54893;49.864;19.084;2023-11-21T03:14:38;10.63;;;3.80;;
68108;SDS011;54893;49.864;19.084;2023-11-21T03:19:39;9.30;;;3.72;;
68108;SDS011;54893;49.864;19.084;2023-11-21T03:24:41;9.50;;;3.40;;
68108;SDS011;54893;49.864;19.084;2023-11-21T03:29:42;10.17;;;4.43;;
68108;SDS011;54893;49.864;19.084;2023-11-21T03:34:55;11.33;;;3.83;;
68108;SDS011;54893;49.864;19.084;2023-11-21T03:39:57;9.87;;;3.80;;
68108;SDS011;54893;49.864;19.084;2023-11-21T03:44:58;13.00;;;4.07;;
68108;SDS011;54893;49.864;19.084;2023-11-21T03:49:58;12.17;;;4.03;;
68108;SDS011;54893;49.864;19.084;2023-11-21T03:54:59;9.63;;;4.13;;
68108;SDS011;54893;49.864;19.084;2023-11-21T03:59:59;7.80;;;3.10;;
68108;SDS011;54893;49.864;19.084;2023-11-21T04:04:59;8.10;;;3.30;;
68108;SDS011;54893;49.864;19.084;2023-11-21T04:10:01;9.30;;;3.33;;
68108;SDS011;54893;49.864;19.084;2023-11-21T04:15:02;8.47;;;3.50;;
68108;SDS011;54893;49.864;19.084;2023-11-21T04:20:04;9.93;;;3.38;;
68108;SDS011;54893;49.864;19.084;2023-11-21T04:25:09;7.40;;;3.70;;
68108;SDS011;54893;49.864;19.084;2023-11-21T04:30:13;7.83;;;3.50;;
68108;SDS011;54893;49.864;19.084;2023-11-21T04:35:14;7.77;;;3.10;;
68108;SDS011;54893;49.864;19.084;2023-11-21T04:40:15;7.35;;;3.30;;
68108;SDS011;54893;49.864;19.084;2023-11-21T04:45:15;9.63;;;3.37;;
68108;SDS011;54893;49.864;19.084;2023-11-21T04:50:16;7.97;;;3.53;;
68108;SDS011;54893;49.864;19.084;2023-11-21T04:55:16;10.10;;;4.03;;
68108;SDS011;54893;49.864;19.084;2023-11-21T05:00:17;9.07;;;3.87;;
68108;SDS011;54893;49.864;19.084;2023-11-21T05:05:17;9.13;;;3.90;;
68108;SDS011;54893;49.864;19.084;2023-11-21T05:10:18;9.73;;;4.20;;
68108;SDS011;54893;49.864;19.084;2023-11-21T05:15:18;10.40;;;3.93;;
68108;SDS011;54893;49.864;19.084;2023-11-21T05:20:18;10.43;;;4.40;;
68108;SDS011;54893;49.864;19.084;2023-11-21T05:25:23;10.23;;;4.55;;
68108;SDS011;54893;49.864;19.084;2023-11-21T05:30:24;13.07;;;4.43;;
68108;SDS011;54893;49.864;19.084;2023-11-21T05:35:24;7.87;;;4.00;;
68108;SDS011;54893;49.864;19.084;2023-11-21T05:40:24;9.77;;;4.30;;
68108;SDS011;54893;49.864;19.084;2023-11-21T05:45:29;10.68;;;5.85;;
68108;SDS011;54893;49.864;19.084;2023-11-21T05:50:30;10.90;;;5.50;;
68108;SDS011;54893;49.864;19.084;2023-11-21T05:55:30;9.33;;;4.57;;
68108;SDS011;54893;49.864;19.084;2023-11-21T06:00:31;11.10;;;4.27;;
68108;SDS011;54893;49.864;19.084;2023-11-21T06:05:32;11.07;;;4.65;;
68108;SDS011;54893;49.864;19.084;2023-11-21T06:10:33;13.93;;;4.75;;
68108;SDS011;54893;49.864;19.084;2023-11-21T06:15:34;14.57;;;7.13;;
68108;SDS011;54893;49.864;19.084;2023-11-21T06:20:34;18.90;;;6.57;;
68108;SDS011;54893;49.864;19.084;2023-11-21T06:25:37;12.07;;;5.93;;
68108;SDS011;54893;49.864;19.084;2023-11-21T06:30:37;13.65;;;5.75;;
68108;SDS011;54893;49.864;19.084;2023-11-21T06:35:38;15.57;;;6.47;;
68108;SDS011;54893;49.864;19.084;2023-11-21T06:40:38;19.93;;;7.90;;
68108;SDS011;54893;49.864;19.084;2023-11-21T06:45:39;22.90;;;9.67;;
68108;SDS011;54893;49.864;19.084;2023-11-21T06:50:39;18.90;;;8.50;;
68108;SDS011;54893;49.864;19.084;2023-11-21T06:55:39;17.17;;;7.57;;
68108;SDS011;54893;49.864;19.084;2023-11-21T07:00:40;16.13;;;6.60;;
68108;SDS011;54893;49.864;19.084;2023-11-21T07:05:41;18.90;;;8.53;;
68108;SDS011;54893;49.864;19.084;2023-11-21T07:10:41;15.20;;;6.80;;
68108;SDS011;54893;49.864;19.084;2023-11-21T07:15:42;14.87;;;7.17;;
68108;SDS011;54893;49.864;19.084;2023-11-21T07:20:43;14.57;;;6.63;;
68108;SDS011;54893;49.864;19.084;2023-11-21T07:25:43;16.03;;;6.73;;
68108;SDS011;54893;49.864;19.084;2023-11-21T07:30:44;17.50;;;8.30;;
68108;SDS011;54893;49.864;19.084;2023-11-21T07:35:44;16.43;;;6.90;;
68108;SDS011;54893;49.864;19.084;2023-11-21T07:40:45;16.03;;;6.80;;
68108;SDS011;54893;49.864;19.084;2023-11-21T07:45:45;15.07;;;6.47;;
68108;SDS011;54893;49.864;19.084;2023-11-21T07:50:45;16.67;;;6.97;;
68108;SDS011;54893;49.864;19.084;2023-11-21T07:55:47;20.33;;;7.27;;
68108;SDS011;54893;49.864;19.084;2023-11-21T08:00:48;13.90;;;6.93;;
68108;SDS011;54893;49.864;19.084;2023-11-21T08:05:49;13.82;;;7.28;;
68108;SDS011;54893;49.864;19.084;2023-11-21T08:10:49;14.83;;;6.90;;
68108;SDS011;54893;49.864;19.084;2023-11-21T08:15:56;16.80;;;7.90;;
68108;SDS011;54893;49.864;19.084;2023-11-21T08:21:01;13.75;;;6.10;;
68108;SDS011;54893;49.864;19.084;2023-11-21T08:26:04;12.30;;;5.45;;
68108;SDS011;54893;49.864;19.084;2023-11-21T08:31:05;12.33;;;5.63;;
68108;SDS011;54893;49.864;19.084;2023-11-21T08:36:09;14.43;;;5.13;;
68108;SDS011;54893;49.864;19.084;2023-11-21T08:41:11;13.15;;;5.72;;
68108;SDS011;54893;49.864;19.084;2023-11-21T08:46:11;12.73;;;5.90;;
68108;SDS011;54893;49.864;19.084;2023-11-21T08:51:11;14.87;;;5.47;;
68108;SDS011;54893;49.864;19.084;2023-11-21T08:56:12;13.67;;;5.70;;
68108;SDS011;54893;49.864;19.084;2023-11-21T09:01:15;13.60;;;5.68;;
68108;SDS011;54893;49.864;19.084;2023-11-21T09:06:15;10.73;;;5.40;;
68108;SDS011;54893;49.864;19.084;2023-11-21T09:11:16;13.27;;;5.10;;
68108;SDS011;54893;49.864;19.084;2023-11-21T09:16:17;11.70;;;5.60;;
68108;SDS011;54893;49.864;19.084;2023-11-21T09:21:17;14.00;;;5.83;;
68108;SDS011;54893;49.864;19.084;2023-11-21T09:26:18;14.97;;;7.90;;
68108;SDS011;54893;49.864;19.084;2023-11-21T09:31:18;16.13;;;5.57;;
68108;SDS011;54893;49.864;19.084;2023-11-21T09:36:22;16.45;;;6.00;;
68108;SDS011;54893;49.864;19.084;2023-11-21T09:41:34;14.23;;;6.30;;
68108;SDS011;54893;49.864;19.084;2023-11-21T09:46:59;14.60;;;6.23;;
68108;SDS011;54893;49.864;19.084;2023-11-21T09:51:59;14.55;;;5.75;;
68108;SDS011;54893;49.864;19.084;2023-11-21T09:57:05;17.00;;;6.85;;
68108;SDS011;54893;49.864;19.084;2023-11-21T10:02:09;15.30;;;6.53;;
68108;SDS011;54893;49.864;19.084;2023-11-21T10:07:13;14.68;;;6.40;;
68108;SDS011;54893;49.864;19.084;2023-11-21T10:12:17;15.60;;;7.20;;
68108;SDS011;54893;49.864;19.084;2023-11-21T10:17:20;17.60;;;7.47;;
68108;SDS011;54893;49.864;19.084;2023-11-21T10:22:21;13.68;;;4.85;;
68108;SDS011;54893;49.864;19.084;2023-11-21T10:27:22;15.88;;;5.78;;
68108;SDS011;54893;49.864;19.084;2023-11-21T10:32:27;14.82;;;7.18;;
68108;SDS011;54893;49.864;19.084;2023-11-21T10:37:28;11.98;;;5.38;;
68108;SDS011;54893;49.864;19.084;2023-11-21T10:42:29;17.47;;;6.50;;
68108;SDS011;54893;49.864;19.084;2023-11-21T10:47:32;13.95;;;5.70;;
68108;SDS011;54893;49.864;19.084;2023-11-21T10:52:33;11.13;;;5.20;;
68108;SDS011;54893;49.864;19.084;2023-11-21T10:57:35;14.63;;;4.85;;
68108;SDS011;54893;49.864;19.084;2023-11-21T11:02:36;14.37;;;5.63;;
68108;SDS011;54893;49.864;19.084;2023-11-21T11:07:36;12.70;;;6.10;;
68108;SDS011;54893;49.864;19.084;2023-11-21T11:12:41;11.65;;;5.10;;
68108;SDS011;54893;49.864;19.084;2023-11-21T11:17:41;12.60;;;5.57;;
68108;SDS011;54893;49.864;19.084;2023-11-21T11:28:04;18.73;;;7.70;;
68108;SDS011;54893;49.864;19.084;2023-11-21T11:38:37;14.30;;;4.67;;
68108;SDS011;54893;49.864;19.084;2023-11-21T11:43:38;10.30;;;4.70;;
68108;SDS011;54893;49.864;19.084;2023-11-21T11:48:44;9.93;;;4.73;;
68108;SDS011;54893;49.864;19.084;2023-11-21T11:53:45;12.82;;;4.50;;
68108;SDS011;54893;49.864;19.084;2023-11-21T11:58:47;13.27;;;5.60;;
68108;SDS011;54893;49.864;19.084;2023-11-21T12:04:30;13.20;;;5.93;;
68108;SDS011;54893;49.864;19.084;2023-11-21T12:09:20;13.60;;;5.82;;
68108;SDS011;54893;49.864;19.084;2023-11-21T12:14:22;12.47;;;5.40;;
68108;SDS011;54893;49.864;19.084;2023-11-21T12:19:23;12.80;;;5.60;;
68108;SDS011;54893;49.864;19.084;2023-11-21T12:24:25;12.27;;;4.93;;
68108;SDS011;54893;49.864;19.084;2023-11-21T12:29:28;16.67;;;6.90;;
68108;SDS011;54893;49.864;19.084;2023-11-21T12:34:29;14.80;;;6.45;;
68108;SDS011;54893;49.864;19.084;2023-11-21T12:39:31;18.10;;;7.60;;
68108;SDS011;54893;49.864;19.084;2023-11-21T12:44:31;19.73;;;8.10;;
68108;SDS011;54893;49.864;19.084;2023-11-21T12:49:31;24.47;;;8.97;;
68108;SDS011;54893;49.864;19.084;2023-11-21T12:54:34;23.33;;;7.43;;
68108;SDS011;54893;49.864;19.084;2023-11-21T12:59:35;20.37;;;8.17;;
68108;SDS011;54893;49.864;19.084;2023-11-21T13:04:35;19.17;;;7.70;;
68108;SDS011;54893;49.864;19.084;2023-11-21T13:09:36;18.27;;;6.97;;
68108;SDS011;54893;49.864;19.084;2023-11-21T13:14:36;14.80;;;7.40;;
68108;SDS011;54893;49.864;19.084;2023-11-21T13:19:37;14.02;;;6.35;;
68108;SDS011;54893;49.864;19.084;2023-11-21T13:24:37;14.87;;;6.53;;
68108;SDS011;54893;49.864;19.084;2023-11-21T13:29:37;17.63;;;8.80;;
68108;SDS011;54893;49.864;19.084;2023-11-21T13:34:38;17.77;;;6.37;;
68108;SDS011;54893;49.864;19.084;2023-11-21T13:39:38;13.70;;;6.25;;
68108;SDS011;54893;49.864;19.084;2023-11-21T13:44:44;11.83;;;5.00;;
68108;SDS011;54893;49.864;19.084;2023-11-21T13:49:48;9.32;;;4.35;;
68108;SDS011;54893;49.864;19.084;2023-11-21T13:54:49;9.18;;;3.72;;
68108;SDS011;54893;49.864;19.084;2023-11-21T13:59:50;11.15;;;3.60;;
68108;SDS011;54893;49.864;19.084;2023-11-21T14:04:51;12.43;;;4.25;;
68108;SDS011;54893;49.864;19.084;2023-11-21T14:09:56;12.10;;;5.23;;
68108;SDS011;54893;49.864;19.084;2023-11-21T14:14:56;19.90;;;7.83;;
68108;SDS011;54893;49.864;19.084;2023-11-21T14:19:56;20.07;;;8.40;;
68108;SDS011;54893;49.864;19.084;2023-11-21T14:24:57;22.57;;;8.97;;
68108;SDS011;54893;49.864;19.084;2023-11-21T14:30:00;24.90;;;10.38;;
68108;SDS011;54893;49.864;19.084;2023-11-21T14:35:01;17.27;;;7.23;;
68108;SDS011;54893;49.864;19.084;2023-11-21T14:40:03;22.27;;;9.68;;
68108;SDS011;54893;49.864;19.084;2023-11-21T14:45:04;30.73;;;13.55;;
68108;SDS011;54893;49.864;19.084;2023-11-21T14:50:07;19.35;;;7.93;;
68108;SDS011;54893;49.864;19.084;2023-11-21T14:55:29;18.15;;;6.30;;
68108;SDS011;54893;49.864;19.084;2023-11-21T15:00:39;19.53;;;8.37;;
68108;SDS011;54893;49.864;19.084;2023-11-21T15:05:44;25.08;;;10.43;;
68108;SDS011;54893;49.864;19.084;2023-11-21T15:10:44;26.03;;;10.87;;
68108;SDS011;54893;49.864;19.084;2023-11-21T15:15:47;31.57;;;13.10;;
68108;SDS011;54893;49.864;19.084;2023-11-21T15:20:47;26.57;;;10.63;;
68108;SDS011;54893;49.864;19.084;2023-11-21T15:25:48;34.23;;;13.47;;
68108;SDS011;54893;49.864;19.084;2023-11-21T15:30:48;28.30;;;11.00;;
68108;SDS011;54893;49.864;19.084;2023-11-21T15:35:51;26.88;;;10.82;;
68108;SDS011;54893;49.864;19.084;2023-11-21T15:40:51;30.13;;;12.43;;
68108;SDS011;54893;49.864;19.084;2023-11-21T15:45:52;29.80;;;12.53;;
68108;SDS011;54893;49.864;19.084;2023-11-21T15:50:52;28.53;;;11.30;;
68108;SDS011;54893;49.864;19.084;2023-11-21T15:55:57;30.65;;;11.60;;
68108;SDS011;54893;49.864;19.084;2023-11-21T16:00:58;30.43;;;13.00;;
68108;SDS011;54893;49.864;19.084;2023-11-21T16:05:59;27.95;;;11.25;;
68108;SDS011;54893;49.864;19.084;2023-11-21T16:11:00;33.93;;;11.57;;
68108;SDS011;54893;49.864;19.084;2023-11-21T16:16:00;37.63;;;13.67;;
68108;SDS011;54893;49.864;19.084;2023-11-21T16:21:01;48.90;;;19.00;;
68108;SDS011;54893;49.864;19.084;2023-11-21T16:26:02;52.20;;;18.27;;
68108;SDS011;54893;49.864;19.084;2023-11-21T16:31:05;48.22;;;17.48;;
68108;SDS011;54893;49.864;19.084;2023-11-21T16:36:05;41.77;;;15.57;;
68108;SDS011;54893;49.864;19.084;2023-11-21T16:41:06;43.28;;;17.85;;
68108;SDS011;54893;49.864;19.084;2023-11-21T16:46:09;46.00;;;17.33;;
68108;SDS011;54893;49.864;19.084;2023-11-21T16:51:11;47.80;;;18.55;;
68108;SDS011;54893;49.864;19.084;2023-11-21T16:56:16;35.97;;;14.57;;
68108;SDS011;54893;49.864;19.084;2023-11-21T17:01:17;39.07;;;16.07;;
68108;SDS011;54893;49.864;19.084;2023-11-21T17:06:17;36.80;;;15.70;;
68108;SDS011;54893;49.864;19.084;2023-11-21T17:11:18;37.40;;;16.17;;
68108;SDS011;54893;49.864;19.084;2023-11-21T17:16:19;45.13;;;16.93;;
68108;SDS011;54893;49.864;19.084;2023-11-21T17:21:19;48.97;;;18.03;;
68108;SDS011;54893;49.864;19.084;2023-11-21T17:26:20;47.93;;;18.57;;
68108;SDS011;54893;49.864;19.084;2023-11-21T17:31:20;49.90;;;20.50;;
68108;SDS011;54893;49.864;19.084;2023-11-21T17:36:22;55.72;;;20.80;;
68108;SDS011;54893;49.864;19.084;2023-11-21T17:41:23;63.33;;;24.95;;
68108;SDS011;54893;49.864;19.084;2023-11-21T17:46:24;71.57;;;27.60;;
68108;SDS011;54893;49.864;19.084;2023-11-21T17:51:24;77.17;;;31.23;;
68108;SDS011;54893;49.864;19.084;2023-11-21T17:56:25;69.40;;;27.88;;
68108;SDS011;54893;49.864;19.084;2023-11-21T18:01:26;65.33;;;23.67;;
68108;SDS011;54893;49.864;19.084;2023-11-21T18:06:33;69.93;;;25.87;;
68108;SDS011;54893;49.864;19.084;2023-11-21T18:11:34;75.20;;;28.20;;
68108;SDS011;54893;49.864;19.084;2023-11-21T18:16:34;83.20;;;29.83;;
68108;SDS011;54893;49.864;19.084;2023-11-21T18:21:37;71.80;;;24.50;;
68108;SDS011;54893;49.864;19.084;2023-11-21T18:26:39;74.63;;;26.23;;
68108;SDS011;54893;49.864;19.084;2023-11-21T18:31:40;81.40;;;28.27;;
68108;SDS011;54893;49.864;19.084;2023-11-21T18:36:42;76.80;;;24.60;;
68108;SDS011;54893;49.864;19.084;2023-11-21T18:41:44;64.60;;;21.42;;
68108;SDS011;54893;49.864;19.084;2023-11-21T18:46:44;78.57;;;25.17;;
68108;SDS011;54893;49.864;19.084;2023-11-21T18:51:45;75.47;;;26.27;;
68108;SDS011;54893;49.864;19.084;2023-11-21T18:56:45;72.97;;;23.50;;
68108;SDS011;54893;49.864;19.084;2023-11-21T19:01:46;75.50;;;25.20;;
68108;SDS011;54893;49.864;19.084;2023-11-21T19:06:46;77.60;;;26.17;;
68108;SDS011;54893;49.864;19.084;2023-11-21T19:11:47;73.25;;;24.65;;
68108;SDS011;54893;49.864;19.084;2023-11-21T19:16:47;89.60;;;29.77;;
68108;SDS011;54893;49.864;19.084;2023-11-21T19:21:48;106.57;;;36.00;;
68108;SDS011;54893;49.864;19.084;2023-11-21T19:26:49;94.03;;;30.07;;
68108;SDS011;54893;49.864;19.084;2023-11-21T19:31:49;180.43;;;42.00;;
68108;SDS011;54893;49.864;19.084;2023-11-21T19:36:50;88.73;;;20.60;;
68108;SDS011;54893;49.864;19.084;2023-11-21T19:41:51;120.57;;;33.13;;
68108;SDS011;54893;49.864;19.084;2023-11-21T19:46:52;84.43;;;24.90;;
68108;SDS011;54893;49.864;19.084;2023-11-21T19:51:52;53.27;;;16.73;;
68108;SDS011;54893;49.864;19.084;2023-11-21T19:56:52;51.53;;;15.70;;
68108;SDS011;54893;49.864;19.084;2023-11-21T20:01:53;53.07;;;17.50;;
68108;SDS011;54893;49.864;19.084;2023-11-21T20:06:53;93.37;;;31.23;;
68108;SDS011;54893;49.864;19.084;2023-11-21T20:11:56;77.33;;;23.97;;
68108;SDS011;54893;49.864;19.084;2023-11-21T20:16:58;43.03;;;13.68;;
68108;SDS011;54893;49.864;19.084;2023-11-21T20:21:59;88.73;;;30.07;;
68108;SDS011;54893;49.864;19.084;2023-11-21T20:26:59;72.97;;;24.13;;
68108;SDS011;54893;49.864;19.084;2023-11-21T20:32:02;64.18;;;22.35;;
68108;SDS011;54893;49.864;19.084;2023-11-21T20:37:05;66.72;;;23.10;;
68108;SDS011;54893;49.864;19.084;2023-11-21T20:42:06;51.80;;;16.83;;
68108;SDS011;54893;49.864;19.084;2023-11-21T20:47:06;30.87;;;11.00;;
68108;SDS011;54893;49.864;19.084;2023-11-21T20:52:07;33.23;;;12.33;;
68108;SDS011;54893;49.864;19.084;2023-11-21T20:57:07;34.27;;;13.27;;
68108;SDS011;54893;49.864;19.084;2023-11-21T21:02:09;39.95;;;14.25;;
68108;SDS011;54893;49.864;19.084;2023-11-21T21:07:10;21.97;;;8.80;;
68108;SDS011;54893;49.864;19.084;2023-11-21T21:12:10;28.30;;;10.52;;
68108;SDS011;54893;49.864;19.084;2023-11-21T21:17:11;32.33;;;12.30;;
68108;SDS011;54893;49.864;19.084;2023-11-21T21:22:11;18.20;;;8.40;;
68108;SDS011;54893;49.864;19.084;2023-11-21T21:27:16;84.28;;;18.05;;
68108;SDS011;54893;49.864;19.084;2023-11-21T21:32:16;31.13;;;15.27;;
68108;SDS011;54893;49.864;19.084;2023-11-21T21:37:16;26.77;;;9.60;;
68108;SDS011;54893;49.864;19.084;2023-11-21T21:42:17;14.93;;;5.35;;
68108;SDS011;54893;49.864;19.084;2023-11-21T21:47:17;26.00;;;10.63;;
68108;SDS011;54893;49.864;19.084;2023-11-21T21:52:18;19.47;;;7.30;;
68108;SDS011;54893;49.864;19.084;2023-11-21T21:57:18;19.83;;;6.37;;
68108;SDS011;54893;49.864;19.084;2023-11-21T22:02:19;13.27;;;4.90;;
68108;SDS011;54893;49.864;19.084;2023-11-21T22:07:19;9.87;;;3.57;;
68108;SDS011;54893;49.864;19.084;2023-11-21T22:12:19;17.80;;;6.83;;
68108;SDS011;54893;49.864;19.084;2023-11-21T22:17:20;15.53;;;6.10;;
68108;SDS011;54893;49.864;19.084;2023-11-21T22:22:20;20.80;;;8.27;;
68108;SDS011;54893;49.864;19.084;2023-11-21T22:27:21;19.97;;;7.20;;
68108;SDS011;54893;49.864;19.084;2023-11-21T22:32:21;16.57;;;6.73;;
68108;SDS011;54893;49.864;19.084;2023-11-21T22:37:22;22.87;;;9.33;;
68108;SDS011;54893;49.864;19.084;2023-11-21T22:42:22;22.83;;;8.70;;
68108;SDS011;54893;49.864;19.084;2023-11-21T22:47:22;17.33;;;6.47;;
68108;SDS011;54893;49.864;19.084;2023-11-21T22:52:23;22.07;;;9.33;;
68108;SDS011;54893;49.864;19.084;2023-11-21T22:57:24;22.07;;;8.50;;
68108;SDS011;54893;49.864;19.084;2023-11-21T23:02:24;22.63;;;9.18;;
68108;SDS011;54893;49.864;19.084;2023-11-21T23:07:25;19.50;;;7.13;;
68108;SDS011;54893;49.864;19.084;2023-11-21T23:12:25;16.40;;;6.95;;
68108;SDS011;54893;49.864;19.084;2023-11-21T23:17:26;11.80;;;3.70;;
68108;SDS011;54893;49.864;19.084;2023-11-21T23:22:27;14.35;;;5.00;;
68108;SDS011;54893;49.864;19.084;2023-11-21T23:27:28;14.63;;;5.87;;
68108;SDS011;54893;49.864;19.084;2023-11-21T23:32:28;17.23;;;6.87;;
68108;SDS011;54893;49.864;19.084;2023-11-21T23:37:29;21.00;;;8.40;;
68108;SDS011;54893;49.864;19.084;2023-11-21T23:42:29;15.97;;;6.23;;
68108;SDS011;54893;49.864;19.084;2023-11-21T23:47:29;17.13;;;6.93;;
68108;SDS011;54893;49.864;19.084;2023-11-21T23:52:30;18.13;;;7.03;;
68108;SDS011;54893;49.864;19.084;2023-11-21T23:57:30;21.73;;;7.30;;
